Terminal Aerodrome Forecast
Issued by NWS Glasgow, MT

Home | Current Version | Previous Version | Text Only | Print | Product List | Glossary On
Versions: 1 2 3 4 5 6 7 8 9 10 11 12 13 14
954
FTUS45 KGGW 231723
TAFGGW
TAF
KGGW 231723Z 2318/2418 31004KT P6SM SKC
     FM240100 12004KT 3SM BR SCT026
     FM240900 12005KT 1SM BR BKN015
     FM241500 11006KT 3SM BR BKN040
     FM241700 12005KT P6SM SCT035=

USA.gov is the U.S. government's official web portal to all federal, state and local government web resources and services.